M/T Vemaoil Xi — 9HWD7 — position and weather

sailwx.info

Track history (hours):
 
Tides and Currents Weather Stations Pressure Air Temp Water Temp Dewpoint Dewpoint Depression Visibility Wind Speed Wind Dir Waves Ship Positions

M/T Vemaoil Xi

Last reported at 2015-Jul-31 07:33 UTC. Time now 2015-Jul-31 09:21 UTC.
Position N 35°51' E 014°36'.

Length 105 m; draft 6.6 m.

Type: Tanker. MMSI: 215631000.

Date/timePositionNaut miles runAvg speedWind from/ knotsBaromVisibWave heightAir tempDewpointWater temp
2015-Jul-31 07:33N 35°51' E 014°36'0 0.0
2015-Jul-31 06:33N 35°51' E 014°36'0 0.0
2015-Jul-31 05:33N 35°51' E 014°36'0 0.1
2015-Jul-31 04:27N 35°51' E 014°36'0 0.1
2015-Jul-31 03:33N 35°51' E 014°36'0 0.0
2015-Jul-31 02:33N 35°51' E 014°36'0 0.0
2015-Jul-31 01:33N 35°51' E 014°36'0 0.0
2015-Jul-31 00:33N 35°51' E 014°36'0 0.0
2015-Jul-30 23:33N 35°51' E 014°36'0 0.0
2015-Jul-30 22:33N 35°51' E 014°36'0 0.0
2015-Jul-30 21:33N 35°51' E 014°36'0 0.0
2015-Jul-30 20:33N 35°51' E 014°36'0 0.0
2015-Jul-30 19:27N 35°51' E 014°36'0 0.0
2015-Jul-30 17:33N 35°51' E 014°36'0 0.2
2015-Jul-30 14:33N 35°51' E 014°36'7 6.9
2015-Jul-30 13:33N 35°53' E 014°45'1 0.5
2015-Jul-30 12:05N 35°53' E 014°46'0 0.0
2015-Jul-30 11:23N 35°53' E 014°46'0 0.0
2015-Jul-30 10:32N 35°53' E 014°46'0 0.0
2015-Jul-30 09:32N 35°53' E 014°46'0 0.0
2015-Jul-30 08:26N 35°53' E 014°46'0 0.0
2015-Jul-30 06:32N 35°53' E 014°46'0 0.0
2015-Jul-30 05:32N 35°53' E 014°46'1 0.5
2015-Jul-30 04:33N 35°52' E 014°46'2 2.1
2015-Jul-30 03:26N 35°51' E 014°43'6 6.3
2015-Jul-30 02:33N 35°51' E 014°36'0 0.0
2015-Jul-30 01:26N 35°51' E 014°36'0 0.0
2015-Jul-30 00:21N 35°51' E 014°36'0 0.0
2015-Jul-29 23:27N 35°51' E 014°36'0 0.0
2015-Jul-29 22:33N 35°51' E 014°36'0 0.0
2015-Jul-29 21:33N 35°51' E 014°36'0 0.0
2015-Jul-29 20:29N 35°51' E 014°36'0 0.0
2015-Jul-29 19:33N 35°51' E 014°36'0 0.0
2015-Jul-29 18:34N 35°51' E 014°36'0 0.4
2015-Jul-29 17:33N 35°51' E 014°36'7 6.6
2015-Jul-29 16:33N 35°54' E 014°44'7 7.1
2015-Jul-29 15:33N 35°59' E 014°50'1 0.6
2015-Jul-29 14:33N 35°59' E 014°51'0 0.0
2015-Jul-29 13:33N 35°59' E 014°51'0 0.0
2015-Jul-29 12:33N 35°59' E 014°51'0 0.0
2015-Jul-29 11:33N 35°59' E 014°51'0 0.0
2015-Jul-29 10:33N 35°59' E 014°51'0 0.0
2015-Jul-29 09:33N 35°59' E 014°51'0 0.0
2015-Jul-29 08:33N 35°59' E 014°51'0 0.0
2015-Jul-29 07:33N 35°59' E 014°51'5 5.2
2015-Jul-29 06:31N 35°54' E 014°47'1 1.3
2015-Jul-29 05:33N 35°53' E 014°46'0 0.0
2015-Jul-29 04:24N 35°53' E 014°46'0 0.0
2015-Jul-29 03:27N 35°53' E 014°46'0 0.0
2015-Jul-29 02:26N 35°53' E 014°46'1 1.2
2015-Jul-29 01:32N 35°54' E 014°46'0 0.0
2015-Jul-29 00:32N 35°54' E 014°46'0 0.0
2015-Jul-28 22:32N 35°54' E 014°46'0 0.0
2015-Jul-28 21:32N 35°54' E 014°46'0 0.0
2015-Jul-28 20:23N 35°54' E 014°46'0 0.0
2015-Jul-28 19:29N 35°54' E 014°46'0 0.0
2015-Jul-28 18:32N 35°54' E 014°46'2 2.0
2015-Jul-28 17:33N 35°56' E 014°47'2 2.3
2015-Jul-28 16:33N 35°56' E 014°44'6 6.3
2015-Jul-28 15:33N 35°55' E 014°37'5 5.3
2015-Jul-28 14:33N 35°53' E 014°31'0 0.1
2015-Jul-28 13:32N 35°53' E 014°31'0 0.0
2015-Jul-28 12:33N 35°53' E 014°31'0 0.0
2015-Jul-28 11:33N 35°53' E 014°31'1 0.3
2015-Jul-28 08:12N 35°54' E 014°31'3 5.1
2015-Jul-28 07:33N 35°53' E 014°35'3 1.2
2015-Jul-28 05:28N 35°50' E 014°35'0 0.0
2015-Jul-28 04:31N 35°50' E 014°36'0 0.0
2015-Jul-27 21:10N 35°50' E 014°36'0 0.0
2015-Jul-27 20:28N 35°50' E 014°36'0 0.0
2015-Jul-27 19:31N 35°50' E 014°36'0 0.0
2015-Jul-27 18:28N 35°50' E 014°36'0 0.0
2015-Jul-27 17:31N 35°50' E 014°36'0 0.0
2015-Jul-27 16:31N 35°50' E 014°36'0 0.0
2015-Jul-27 15:33N 35°50' E 014°36'0 0.0
2015-Jul-27 14:33N 35°50' E 014°36'0 0.0
2015-Jul-27 13:33N 35°50' E 014°36'0 0.0
2015-Jul-27 12:33N 35°50' E 014°36'0 0.3
2015-Jul-27 11:33N 35°50' E 014°36'7 6.6
2015-Jul-27 10:33N 35°53' E 014°43'3 3.3
2015-Jul-27 09:33N 35°54' E 014°47'0 0.0
2015-Jul-27 08:09N 35°54' E 014°47'0 0.0
2015-Jul-27 07:30N 35°54' E 014°47'0 0.0
2015-Jul-27 06:33N 35°54' E 014°47'0 0.0
2015-Jul-27 04:18N 35°54' E 014°47'0 0.1
2015-Jul-27 03:27N 35°54' E 014°47'0 0.0
2015-Jul-27 01:30N 35°54' E 014°47'4 4.4
2015-Jul-27 00:33N 35°52' E 014°43'6 2.6
2015-Jul-26 22:20N 35°50' E 014°36'0 0.0
2015-Jul-26 21:32N 35°50' E 014°36'0 0.0
2015-Jul-26 20:32N 35°50' E 014°36'0 0.0
2015-Jul-26 19:32N 35°50' E 014°36'0 0.0
2015-Jul-26 18:26N 35°50' E 014°36'0 0.0
2015-Jul-26 17:32N 35°50' E 014°36'0 0.0
2015-Jul-26 16:32N 35°50' E 014°36'0 0.1
2015-Jul-26 15:32N 35°50' E 014°36'0 0.0
2015-Jul-26 14:32N 35°50' E 014°36'2 1.6
2015-Jul-26 13:33N 35°49' E 014°35'0 0.0
2015-Jul-26 12:33N 35°49' E 014°35'0 0.0
2015-Jul-26 11:33N 35°49' E 014°35'0 0.0
2015-Jul-26 10:33N 35°49' E 014°35'0 0.0
2015-Jul-26 09:33N 35°49' E 014°35'0 0.0
2015-Jul-26 08:33N 35°49' E 014°35'0 0.0
2015-Jul-26 07:30N 35°49' E 014°35'0 0.0
2015-Jul-26 01:30N 35°49' E 014°35'0 0.0
2015-Jul-25 21:21N 35°49' E 014°35'0 0.0
2015-Jul-25 20:27N 35°49' E 014°35'0 0.1
2015-Jul-25 19:30N 35°49' E 014°35'0 0.4
2015-Jul-25 18:33N 35°49' E 014°36'0 0.0
2015-Jul-25 17:33N 35°49' E 014°35'0 0.1
2015-Jul-25 13:30N 35°49' E 014°35'0 0.0
2015-Jul-24 23:20N 35°49' E 014°35'0 0.0
2015-Jul-24 22:32N 35°49' E 014°35'0 0.0
2015-Jul-24 21:32N 35°49' E 014°35'0 0.0
2015-Jul-24 20:32N 35°49' E 014°35'0 0.0
2015-Jul-24 19:32N 35°49' E 014°35'0 0.0
2015-Jul-24 15:05N 35°49' E 014°35'0 0.0
2015-Jul-24 14:32N 35°49' E 014°35'1 0.9
2015-Jul-24 13:32N 35°49' E 014°36'6 6.5
2015-Jul-24 12:33N 35°52' E 014°44'3 2.5
2015-Jul-24 11:30N 35°53' E 014°46'0 0.0
2015-Jul-24 09:12N 35°53' E 014°46'0 0.0
2015-Jul-24 08:30N 35°53' E 014°46'0 0.0
2015-Jul-24 07:27N 35°53' E 014°46'1 1.1
2015-Jul-24 06:33N 35°52' E 014°46'8 6.2
2015-Jul-24 05:16N 35°49' E 014°37'3 0.4
2015-Jul-23 21:19N 35°49' E 014°33'0 0.0
2015-Jul-23 20:31N 35°49' E 014°33'0 0.0
2015-Jul-23 19:28N 35°49' E 014°33'0 0.0
2015-Jul-23 18:22N 35°49' E 014°33'0 0.0
2015-Jul-23 17:10N 35°49' E 014°33'0 0.0
2015-Jul-23 15:28N 35°49' E 014°33'0 0.5
2015-Jul-23 14:33N 35°49' E 014°33'1 0.3
2015-Jul-23 12:28N 35°49' E 014°32'0 0.0
2015-Jul-23 07:21N 35°49' E 014°32'1 0.3
2015-Jul-23 03:28N 35°49' E 014°34'1 0.5
2015-Jul-23 01:16N 35°49' E 014°35'0 0.0
2015-Jul-23 00:31N 35°49' E 014°35'0 0.0
2015-Jul-22 23:31N 35°49' E 014°35'0 0.0
2015-Jul-22 22:31N 35°49' E 014°35'0 0.1
2015-Jul-22 21:31N 35°49' E 014°35'0 0.0
2015-Jul-22 20:31N 35°49' E 014°35'0 0.0
2015-Jul-22 19:31N 35°49' E 014°35'0 0.0
2015-Jul-22 18:31N 35°49' E 014°35'0 0.0
2015-Jul-22 17:31N 35°49' E 014°35'0 0.0
2015-Jul-22 16:31N 35°49' E 014°35'0 0.0
2015-Jul-22 15:31N 35°49' E 014°35'0 0.0
2015-Jul-22 14:28N 35°49' E 014°35'0 0.0
2015-Jul-22 12:07N 35°49' E 014°35'0 0.0
2015-Jul-22 11:28N 35°49' E 014°35'0 0.0
2015-Jul-22 10:31N 35°49' E 014°35'0 0.0
2015-Jul-22 09:31N 35°49' E 014°35'0 0.0
2015-Jul-22 08:31N 35°49' E 014°35'0 0.0
2015-Jul-22 07:28N 35°49' E 014°35'0 0.0
2015-Jul-22 06:31N 35°49' E 014°35'0 0.0
2015-Jul-22 05:31N 35°49' E 014°35'0 0.0
2015-Jul-22 04:31N 35°49' E 014°35'0 0.0
2015-Jul-22 03:31N 35°49' E 014°35'0 0.1
2015-Jul-22 02:28N 35°49' E 014°35'0 0.0
2015-Jul-22 01:31N 35°49' E 014°35'0 0.0
2015-Jul-22 00:31N 35°49' E 014°35'0 0.0
2015-Jul-21 23:31N 35°49' E 014°35'0 0.0
2015-Jul-21 22:31N 35°49' E 014°35'0 0.0
2015-Jul-21 21:31N 35°49' E 014°35'0 0.0
2015-Jul-21 20:31N 35°49' E 014°35'0 0.0
2015-Jul-21 19:31N 35°49' E 014°35'0 0.1
2015-Jul-21 18:31N 35°49' E 014°35'0 0.0
2015-Jul-21 17:28N 35°49' E 014°35'0 0.0
2015-Jul-21 16:31N 35°49' E 014°35'0 0.0
2015-Jul-21 15:31N 35°49' E 014°35'0 0.0
2015-Jul-21 14:31N 35°49' E 014°35'0 0.0
2015-Jul-21 13:31N 35°49' E 014°35'0 0.0
2015-Jul-21 12:31N 35°49' E 014°35'0 0.0
2015-Jul-21 11:31N 35°49' E 014°35'0 0.0
2015-Jul-21 10:31N 35°49' E 014°35'0 0.0
2015-Jul-21 09:31N 35°49' E 014°35'0 0.0
2015-Jul-21 08:31N 35°49' E 014°35'  
Track history (hours):
 
Tides and Currents Weather Stations Pressure Air Temp Water Temp Dewpoint Dewpoint Depression Visibility Wind Speed Wind Dir Waves Ship Positions

M/T Vemaoil Xi

Last reported at 2015-Jul-31 07:33 UTC. Time now 2015-Jul-31 09:21 UTC.
Position N 35°51' E 014°36'.

Length 105 m; draft 6.6 m.

Type: Tanker. MMSI: 215631000.

Date/timePositionNaut miles runAvg speedWind from/ knotsBaromVisibWave heightAir tempDewpointWater temp
2015-Jul-31 07:33N 35°51' E 014°36'0 0.0
2015-Jul-31 06:33N 35°51' E 014°36'0 0.0
2015-Jul-31 05:33N 35°51' E 014°36'0 0.1
2015-Jul-31 04:27N 35°51' E 014°36'0 0.1
2015-Jul-31 03:33N 35°51' E 014°36'0 0.0
2015-Jul-31 02:33N 35°51' E 014°36'0 0.0
2015-Jul-31 01:33N 35°51' E 014°36'0 0.0
2015-Jul-31 00:33N 35°51' E 014°36'0 0.0
2015-Jul-30 23:33N 35°51' E 014°36'0 0.0
2015-Jul-30 22:33N 35°51' E 014°36'0 0.0
2015-Jul-30 21:33N 35°51' E 014°36'0 0.0
2015-Jul-30 20:33N 35°51' E 014°36'0 0.0
2015-Jul-30 19:27N 35°51' E 014°36'0 0.0
2015-Jul-30 17:33N 35°51' E 014°36'0 0.2
2015-Jul-30 14:33N 35°51' E 014°36'7 6.9
2015-Jul-30 13:33N 35°53' E 014°45'1 0.5
2015-Jul-30 12:05N 35°53' E 014°46'0 0.0
2015-Jul-30 11:23N 35°53' E 014°46'0 0.0
2015-Jul-30 10:32N 35°53' E 014°46'0 0.0
2015-Jul-30 09:32N 35°53' E 014°46'0 0.0
2015-Jul-30 08:26N 35°53' E 014°46'0 0.0
2015-Jul-30 06:32N 35°53' E 014°46'0 0.0
2015-Jul-30 05:32N 35°53' E 014°46'1 0.5
2015-Jul-30 04:33N 35°52' E 014°46'2 2.1
2015-Jul-30 03:26N 35°51' E 014°43'6 6.3
2015-Jul-30 02:33N 35°51' E 014°36'0 0.0
2015-Jul-30 01:26N 35°51' E 014°36'0 0.0
2015-Jul-30 00:21N 35°51' E 014°36'0 0.0
2015-Jul-29 23:27N 35°51' E 014°36'0 0.0
2015-Jul-29 22:33N 35°51' E 014°36'0 0.0
2015-Jul-29 21:33N 35°51' E 014°36'0 0.0
2015-Jul-29 20:29N 35°51' E 014°36'0 0.0
2015-Jul-29 19:33N 35°51' E 014°36'0 0.0
2015-Jul-29 18:34N 35°51' E 014°36'0 0.4
2015-Jul-29 17:33N 35°51' E 014°36'7 6.6
2015-Jul-29 16:33N 35°54' E 014°44'7 7.1
2015-Jul-29 15:33N 35°59' E 014°50'1 0.6
2015-Jul-29 14:33N 35°59' E 014°51'0 0.0
2015-Jul-29 13:33N 35°59' E 014°51'0 0.0
2015-Jul-29 12:33N 35°59' E 014°51'0 0.0
2015-Jul-29 11:33N 35°59' E 014°51'0 0.0
2015-Jul-29 10:33N 35°59' E 014°51'0 0.0
2015-Jul-29 09:33N 35°59' E 014°51'0 0.0
2015-Jul-29 08:33N 35°59' E 014°51'0 0.0
2015-Jul-29 07:33N 35°59' E 014°51'5 5.2
2015-Jul-29 06:31N 35°54' E 014°47'1 1.3
2015-Jul-29 05:33N 35°53' E 014°46'0 0.0
2015-Jul-29 04:24N 35°53' E 014°46'0 0.0
2015-Jul-29 03:27N 35°53' E 014°46'0 0.0
2015-Jul-29 02:26N 35°53' E 014°46'1 1.2
2015-Jul-29 01:32N 35°54' E 014°46'0 0.0
2015-Jul-29 00:32N 35°54' E 014°46'0 0.0
2015-Jul-28 22:32N 35°54' E 014°46'0 0.0
2015-Jul-28 21:32N 35°54' E 014°46'0 0.0
2015-Jul-28 20:23N 35°54' E 014°46'0 0.0
2015-Jul-28 19:29N 35°54' E 014°46'0 0.0
2015-Jul-28 18:32N 35°54' E 014°46'2 2.0
2015-Jul-28 17:33N 35°56' E 014°47'2 2.3
2015-Jul-28 16:33N 35°56' E 014°44'6 6.3
2015-Jul-28 15:33N 35°55' E 014°37'5 5.3
2015-Jul-28 14:33N 35°53' E 014°31'0 0.1
2015-Jul-28 13:32N 35°53' E 014°31'0 0.0
2015-Jul-28 12:33N 35°53' E 014°31'0 0.0
2015-Jul-28 11:33N 35°53' E 014°31'1 0.3
2015-Jul-28 08:12N 35°54' E 014°31'3 5.1
2015-Jul-28 07:33N 35°53' E 014°35'3 1.2
2015-Jul-28 05:28N 35°50' E 014°35'0 0.0
2015-Jul-28 04:31N 35°50' E 014°36'0 0.0
2015-Jul-27 21:10N 35°50' E 014°36'0 0.0
2015-Jul-27 20:28N 35°50' E 014°36'0 0.0
2015-Jul-27 19:31N 35°50' E 014°36'0 0.0
2015-Jul-27 18:28N 35°50' E 014°36'0 0.0
2015-Jul-27 17:31N 35°50' E 014°36'0 0.0
2015-Jul-27 16:31N 35°50' E 014°36'0 0.0
2015-Jul-27 15:33N 35°50' E 014°36'0 0.0
2015-Jul-27 14:33N 35°50' E 014°36'0 0.0
2015-Jul-27 13:33N 35°50' E 014°36'0 0.0
2015-Jul-27 12:33N 35°50' E 014°36'0 0.3
2015-Jul-27 11:33N 35°50' E 014°36'7 6.6
2015-Jul-27 10:33N 35°53' E 014°43'3 3.3
2015-Jul-27 09:33N 35°54' E 014°47'0 0.0
2015-Jul-27 08:09N 35°54' E 014°47'0 0.0
2015-Jul-27 07:30N 35°54' E 014°47'0 0.0
2015-Jul-27 06:33N 35°54' E 014°47'0 0.0
2015-Jul-27 04:18N 35°54' E 014°47'0 0.1
2015-Jul-27 03:27N 35°54' E 014°47'0 0.0
2015-Jul-27 01:30N 35°54' E 014°47'4 4.4
2015-Jul-27 00:33N 35°52' E 014°43'6 2.6
2015-Jul-26 22:20N 35°50' E 014°36'0 0.0
2015-Jul-26 21:32N 35°50' E 014°36'0 0.0
2015-Jul-26 20:32N 35°50' E 014°36'0 0.0
2015-Jul-26 19:32N 35°50' E 014°36'0 0.0
2015-Jul-26 18:26N 35°50' E 014°36'0 0.0
2015-Jul-26 17:32N 35°50' E 014°36'0 0.0
2015-Jul-26 16:32N 35°50' E 014°36'0 0.1
2015-Jul-26 15:32N 35°50' E 014°36'0 0.0
2015-Jul-26 14:32N 35°50' E 014°36'2 1.6
2015-Jul-26 13:33N 35°49' E 014°35'0 0.0
2015-Jul-26 12:33N 35°49' E 014°35'0 0.0
2015-Jul-26 11:33N 35°49' E 014°35'0 0.0
2015-Jul-26 10:33N 35°49' E 014°35'0 0.0
2015-Jul-26 09:33N 35°49' E 014°35'0 0.0
2015-Jul-26 08:33N 35°49' E 014°35'0 0.0
2015-Jul-26 07:30N 35°49' E 014°35'0 0.0
2015-Jul-26 01:30N 35°49' E 014°35'0 0.0
2015-Jul-25 21:21N 35°49' E 014°35'0 0.0
2015-Jul-25 20:27N 35°49' E 014°35'0 0.1
2015-Jul-25 19:30N 35°49' E 014°35'0 0.4
2015-Jul-25 18:33N 35°49' E 014°36'0 0.0
2015-Jul-25 17:33N 35°49' E 014°35'0 0.1
2015-Jul-25 13:30N 35°49' E 014°35'0 0.0
2015-Jul-24 23:20N 35°49' E 014°35'0 0.0
2015-Jul-24 22:32N 35°49' E 014°35'0 0.0
2015-Jul-24 21:32N 35°49' E 014°35'0 0.0
2015-Jul-24 20:32N 35°49' E 014°35'0 0.0
2015-Jul-24 19:32N 35°49' E 014°35'0 0.0
2015-Jul-24 15:05N 35°49' E 014°35'0 0.0
2015-Jul-24 14:32N 35°49' E 014°35'1 0.9
2015-Jul-24 13:32N 35°49' E 014°36'6 6.5
2015-Jul-24 12:33N 35°52' E 014°44'3 2.5
2015-Jul-24 11:30N 35°53' E 014°46'0 0.0
2015-Jul-24 09:12N 35°53' E 014°46'0 0.0
2015-Jul-24 08:30N 35°53' E 014°46'0 0.0
2015-Jul-24 07:27N 35°53' E 014°46'1 1.1
2015-Jul-24 06:33N 35°52' E 014°46'8 6.2
2015-Jul-24 05:16N 35°49' E 014°37'3 0.4
2015-Jul-23 21:19N 35°49' E 014°33'0 0.0
2015-Jul-23 20:31N 35°49' E 014°33'0 0.0
2015-Jul-23 19:28N 35°49' E 014°33'0 0.0
2015-Jul-23 18:22N 35°49' E 014°33'0 0.0
2015-Jul-23 17:10N 35°49' E 014°33'0 0.0
2015-Jul-23 15:28N 35°49' E 014°33'0 0.5
2015-Jul-23 14:33N 35°49' E 014°33'1 0.3
2015-Jul-23 12:28N 35°49' E 014°32'0 0.0
2015-Jul-23 07:21N 35°49' E 014°32'1 0.3
2015-Jul-23 03:28N 35°49' E 014°34'1 0.5
2015-Jul-23 01:16N 35°49' E 014°35'0 0.0
2015-Jul-23 00:31N 35°49' E 014°35'0 0.0
2015-Jul-22 23:31N 35°49' E 014°35'0 0.0
2015-Jul-22 22:31N 35°49' E 014°35'0 0.1
2015-Jul-22 21:31N 35°49' E 014°35'0 0.0
2015-Jul-22 20:31N 35°49' E 014°35'0 0.0
2015-Jul-22 19:31N 35°49' E 014°35'0 0.0
2015-Jul-22 18:31N 35°49' E 014°35'0 0.0
2015-Jul-22 17:31N 35°49' E 014°35'0 0.0
2015-Jul-22 16:31N 35°49' E 014°35'0 0.0
2015-Jul-22 15:31N 35°49' E 014°35'0 0.0
2015-Jul-22 14:28N 35°49' E 014°35'0 0.0
2015-Jul-22 12:07N 35°49' E 014°35'0 0.0
2015-Jul-22 11:28N 35°49' E 014°35'0 0.0
2015-Jul-22 10:31N 35°49' E 014°35'0 0.0
2015-Jul-22 09:31N 35°49' E 014°35'0 0.0
2015-Jul-22 08:31N 35°49' E 014°35'0 0.0
2015-Jul-22 07:28N 35°49' E 014°35'0 0.0
2015-Jul-22 06:31N 35°49' E 014°35'0 0.0
2015-Jul-22 05:31N 35°49' E 014°35'0 0.0
2015-Jul-22 04:31N 35°49' E 014°35'0 0.0
2015-Jul-22 03:31N 35°49' E 014°35'0 0.1
2015-Jul-22 02:28N 35°49' E 014°35'0 0.0
2015-Jul-22 01:31N 35°49' E 014°35'0 0.0
2015-Jul-22 00:31N 35°49' E 014°35'0 0.0
2015-Jul-21 23:31N 35°49' E 014°35'0 0.0
2015-Jul-21 22:31N 35°49' E 014°35'0 0.0
2015-Jul-21 21:31N 35°49' E 014°35'0 0.0
2015-Jul-21 20:31N 35°49' E 014°35'0 0.0
2015-Jul-21 19:31N 35°49' E 014°35'0 0.1
2015-Jul-21 18:31N 35°49' E 014°35'0 0.0
2015-Jul-21 17:28N 35°49' E 014°35'0 0.0
2015-Jul-21 16:31N 35°49' E 014°35'0 0.0
2015-Jul-21 15:31N 35°49' E 014°35'0 0.0
2015-Jul-21 14:31N 35°49' E 014°35'0 0.0
2015-Jul-21 13:31N 35°49' E 014°35'0 0.0
2015-Jul-21 12:31N 35°49' E 014°35'0 0.0
2015-Jul-21 11:31N 35°49' E 014°35'0 0.0
2015-Jul-21 10:31N 35°49' E 014°35'0 0.0
2015-Jul-21 09:31N 35°49' E 014°35'0 0.0
2015-Jul-21 08:31N 35°49' E 014°35'  

Dump ship's entire track history